Time;durP1;ratioP1;P1;durP2;ratioP2;P2;SDS_P1;SDS_P2;PMS_P1;PMS_P2;Temp;Humidity;BMP_temperature;BMP_pressure;BME280_temperature;BME280_humidity;BME280_pressure;Samples;Min_cycle;Max_cycle;Signal;HPM_P1;HPM_P2
2023/06/29 00:01:55;;;;;;;5.93;3.60;;;;;;;16.34;69.59;100085.41;123651;1098;104302;-77
2023/06/29 00:04:26;;;;;;;6.70;3.30;;;;;;;16.32;69.54;100085.40;123735;1099;104369;-76
2023/06/29 00:06:59;;;;;;;5.10;3.70;;;;;;;16.31;69.10;100091.59;123623;1099;104317;-76
2023/06/29 00:09:31;;;;;;;5.15;3.40;;;;;;;16.32;69.21;100084.52;124057;1099;104190;-76
2023/06/29 00:12:02;;;;;;;6.33;3.63;;;;;;;16.32;69.61;100076.58;123585;1099;104223;-76
2023/06/29 00:14:34;;;;;;;5.10;3.30;;;;;;;16.29;69.10;100079.21;123585;1099;104505;-76
2023/06/29 00:17:08;;;;;;;6.10;3.37;;;;;;;16.26;69.12;100073.90;123510;1099;104357;-76
2023/06/29 00:19:39;;;;;;;9.30;3.47;;;;;;;16.26;69.88;100073.90;123710;1099;104216;-77
2023/06/29 00:22:13;;;;;;;4.27;3.10;;;;;;;16.24;69.28;100070.37;123561;1099;104214;-77
2023/06/29 00:24:44;;;;;;;5.85;3.40;;;;;;;16.24;69.97;100079.19;123571;1098;104724;-76
2023/06/29 00:27:16;;;;;;;5.50;3.47;;;;;;;16.23;69.76;100073.88;123324;1099;104312;-77
2023/06/29 00:29:47;;;;;;;5.43;3.40;;;;;;;16.20;69.48;100073.86;123555;1099;104437;-75
2023/06/29 00:32:19;;;;;;;6.73;3.50;;;;;;;16.16;69.92;100073.84;123528;1099;104293;-75
2023/06/29 00:34:50;;;;;;;6.40;3.60;;;;;;;16.12;69.71;100065.88;123200;1098;104270;-75
2023/06/29 00:37:21;;;;;;;6.07;3.47;;;;;;;16.09;70.29;100066.73;123578;1099;104728;-76
2023/06/29 00:39:53;;;;;;;6.30;3.33;;;;;;;16.08;69.92;100054.39;123474;1099;104376;-76
2023/06/29 00:42:24;;;;;;;6.20;3.70;;;;;;;16.07;69.86;100049.96;123511;1099;104245;-75
2023/06/29 00:44:55;;;;;;;6.60;3.43;;;;;;;16.07;70.01;100057.03;123257;1099;104309;-75
2023/06/29 00:47:27;;;;;;;6.27;3.40;;;;;;;16.06;70.51;100053.47;123485;1099;104355;-76
2023/06/29 00:49:59;;;;;;;4.85;3.60;;;;;;;16.05;70.12;100051.73;123579;1099;104236;-76
2023/06/29 00:52:31;;;;;;;4.17;3.33;;;;;;;16.04;69.99;100047.30;123544;1098;104272;-76
2023/06/29 00:55:04;;;;;;;6.53;3.42;;;;;;;16.05;69.80;100051.73;123552;1098;104242;-76
2023/06/29 00:57:35;;;;;;;4.27;3.30;;;;;;;16.04;70.27;100049.95;123596;1099;104274;-76
2023/06/29 01:00:10;;;;;;;5.77;3.30;;;;;;;16.01;70.31;100047.28;123597;1099;104307;-75
2023/06/29 01:02:42;;;;;;;5.80;3.23;;;;;;;16.01;70.77;100043.76;123615;1099;104252;-76
2023/06/29 01:05:16;;;;;;;6.93;3.50;;;;;;;15.97;70.32;100045.48;123583;1099;104257;-75
2023/06/29 01:07:56;;;;;;;6.13;3.83;;;;;;;15.88;70.85;100045.41;123599;1099;104268;-75
2023/06/29 01:10:32;;;;;;;11.50;4.20;;;;;;;15.78;70.62;100044.48;123546;1098;104265;-75
2023/06/29 01:13:06;;;;;;;7.20;3.70;;;;;;;15.73;70.57;100048.82;123534;1099;104699;-75
2023/06/29 01:15:40;;;;;;;7.80;3.87;;;;;;;15.66;70.99;100050.55;123562;1098;104344;-75
2023/06/29 01:18:15;;;;;;;6.50;3.80;;;;;;;15.60;70.69;100051.38;123656;1099;104261;-74
2023/06/29 01:20:49;;;;;;;7.40;4.07;;;;;;;15.55;70.40;100053.10;123225;1099;104542;-75
2023/06/29 01:23:25;;;;;;;5.70;3.90;;;;;;;15.46;71.52;100045.97;123586;1099;104331;-75
2023/06/29 01:25:58;;;;;;;7.40;3.90;;;;;;;15.36;70.70;100046.75;123526;1099;104331;-75
2023/06/29 01:28:32;;;;;;;6.63;3.97;;;;;;;15.27;70.84;100044.05;123522;1099;104705;-75
2023/06/29 01:31:03;;;;;;;8.00;4.00;;;;;;;15.21;71.93;100044.87;123510;1099;104252;-76
2023/06/29 01:33:35;;;;;;;10.17;4.30;;;;;;;15.18;71.83;100051.89;123512;1099;104338;-76
2023/06/29 01:36:16;;;;;;;9.30;4.35;;;;;;;15.15;71.13;100043.93;123473;1099;104271;-75
2023/06/29 01:38:53;;;;;;;7.47;3.90;;;;;;;15.09;71.80;100050.91;123702;1099;104214;-76
2023/06/29 01:41:26;;;;;;;5.77;3.67;;;;;;;15.08;71.45;100051.80;123566;1099;104262;-75
2023/06/29 01:43:59;;;;;;;7.50;4.05;;;;;;;15.09;71.90;100047.39;123534;1099;104277;-76
2023/06/29 01:46:32;;;;;;;5.65;3.85;;;;;;;15.07;72.01;100042.09;123477;1099;104274;-75
2023/06/29 01:49:04;;;;;;;7.97;4.33;;;;;;;15.03;72.47;100039.39;123445;1099;104749;-76
2023/06/29 01:51:35;;;;;;;6.27;4.33;;;;;;;14.99;72.28;100040.22;123558;1098;104252;-76
2023/06/29 01:54:07;;;;;;;8.57;4.43;;;;;;;14.92;72.55;100041.92;123649;1099;104344;-75
2023/06/29 01:56:38;;;;;;;7.40;4.00;;;;;;;14.88;73.05;100050.67;123556;1099;104792;-75
2023/06/29 01:59:10;;;;;;;8.60;4.23;;;;;;;14.85;73.23;100046.27;123277;1099;104402;-76
2023/06/29 02:01:42;;;;;;;11.33;4.37;;;;;;;14.85;73.35;100059.47;123274;1099;105469;-76
2023/06/29 02:04:13;;;;;;;7.67;4.83;;;;;;;14.86;72.54;100055.06;123579;1099;104271;-76
2023/06/29 02:06:44;;;;;;;8.00;4.43;;;;;;;14.84;72.78;100057.69;123576;1099;104306;-75
2023/06/29 02:09:15;;;;;;;8.20;4.17;;;;;;;14.83;73.45;100060.31;123273;1099;104348;-76
2023/06/29 02:11:47;;;;;;;8.77;4.40;;;;;;;14.83;73.37;100055.03;123553;1099;104469;-76
2023/06/29 02:14:18;;;;;;;8.70;4.53;;;;;;;14.83;73.67;100055.03;123604;1099;104267;-75
2023/06/29 02:16:52;;;;;;;7.47;4.40;;;;;;;14.82;73.85;100063.81;123673;1099;104325;-76
2023/06/29 02:19:23;;;;;;;7.90;4.15;;;;;;;14.79;73.89;100063.77;123638;1099;104354;-76
2023/06/29 02:21:54;;;;;;;8.00;4.25;;;;;;;14.80;73.18;100061.15;123518;1099;104372;-75
2023/06/29 02:24:25;;;;;;;9.03;4.03;;;;;;;14.81;73.32;100057.66;123551;1099;104370;-75
2023/06/29 02:26:56;;;;;;;9.17;4.30;;;;;;;14.83;74.06;100057.67;123512;1099;104286;-77
2023/06/29 02:29:28;;;;;;;8.33;4.10;;;;;;;14.86;74.08;100061.22;123486;1098;104288;-76
2023/06/29 02:31:59;;;;;;;8.00;4.20;;;;;;;14.90;73.57;100051.59;123326;1099;104264;-76
2023/06/29 02:34:31;;;;;;;5.40;3.73;;;;;;;14.91;73.83;100054.25;123258;1099;104248;-76
2023/06/29 02:37:02;;;;;;;7.47;4.00;;;;;;;14.91;73.67;100061.27;123498;1099;104341;-76
2023/06/29 02:39:33;;;;;;;7.00;4.07;;;;;;;14.89;73.49;100057.73;123503;1099;104267;-75
2023/06/29 02:42:05;;;;;;;7.73;4.23;;;;;;;14.87;74.54;100056.84;123512;1099;104341;-75
2023/06/29 02:44:36;;;;;;;7.83;4.23;;;;;;;14.87;74.68;100052.44;123559;1099;104225;-76
2023/06/29 02:47:08;;;;;;;7.83;4.10;;;;;;;14.88;74.31;100051.58;123358;1099;104323;-75
2023/06/29 02:49:40;;;;;;;7.13;4.07;;;;;;;14.88;74.01;100058.59;123566;1099;104421;-75
2023/06/29 02:52:11;;;;;;;8.77;4.07;;;;;;;14.90;74.09;100048.95;123649;1099;104287;-75
2023/06/29 02:54:43;;;;;;;6.77;4.13;;;;;;;14.85;73.81;100051.55;123517;1099;104315;-75
2023/06/29 02:57:14;;;;;;;8.00;4.37;;;;;;;14.80;74.48;100047.95;123632;1099;104210;-76
2023/06/29 02:59:46;;;;;;;8.97;4.43;;;;;;;14.76;74.43;100048.80;123559;1099;104409;-77
2023/06/29 03:02:17;;;;;;;7.00;4.27;;;;;;;14.73;73.98;100041.72;123530;1099;104878;-76
2023/06/29 03:04:49;;;;;;;7.77;4.50;;;;;;;14.71;74.70;100051.39;123571;1099;104367;-77
2023/06/29 03:07:20;;;;;;;7.07;4.57;;;;;;;14.69;74.29;100053.14;123569;1099;104271;-76
2023/06/29 03:09:51;;;;;;;7.77;4.17;;;;;;;14.70;74.53;100043.45;123544;1099;104382;-75
2023/06/29 03:12:25;;;;;;;9.33;4.63;;;;;;;14.72;75.01;100054.91;123607;1098;104285;-75
2023/06/29 03:14:56;;;;;;;9.07;4.30;;;;;;;14.74;75.13;100051.42;123604;1099;104245;-76
2023/06/29 03:17:28;;;;;;;9.17;4.80;;;;;;;14.80;74.54;100050.59;123617;1099;104261;-75
2023/06/29 03:19:59;;;;;;;6.57;4.30;;;;;;;14.83;75.20;100047.98;123528;1099;104171;-76
2023/06/29 03:22:31;;;;;;;10.13;4.40;;;;;;;14.84;75.15;100041.84;123544;1099;104262;-75
2023/06/29 03:25:03;;;;;;;7.67;4.70;;;;;;;14.87;75.54;100052.44;123718;1099;104319;-76
2023/06/29 03:27:34;;;;;;;9.37;4.93;;;;;;;14.88;75.15;100056.86;123537;1099;104335;-76
2023/06/29 03:30:08;;;;;;;8.23;4.60;;;;;;;14.91;75.71;100053.34;123517;1099;104680;-76
2023/06/29 03:32:39;;;;;;;8.25;4.47;;;;;;;14.91;74.85;100053.34;123614;1099;104344;-76
2023/06/29 03:35:11;;;;;;;8.45;4.80;;;;;;;14.91;75.26;100054.25;123543;1099;104288;-75
2023/06/29 03:37:42;;;;;;;8.67;4.53;;;;;;;14.95;75.38;100049.88;123786;1099;104316;-76
2023/06/29 03:40:16;;;;;;;7.27;4.47;;;;;;;14.99;75.87;100053.44;123579;1099;104654;-75
2023/06/29 03:42:49;;;;;;;7.20;4.60;;;;;;;15.03;75.80;100055.25;123690;1098;104402;-76
2023/06/29 03:45:20;;;;;;;8.60;5.10;;;;;;;15.04;75.91;100049.98;123675;1099;104345;-76
2023/06/29 03:47:52;;;;;;;9.37;4.20;;;;;;;15.08;76.01;100053.53;123645;1099;104399;-76
2023/06/29 03:50:23;;;;;;;7.37;4.27;;;;;;;15.12;75.97;100057.11;123718;1099;104328;-76
2023/06/29 03:52:54;;;;;;;8.30;4.57;;;;;;;15.16;75.72;100056.25;123672;1099;104634;-77
2023/06/29 03:55:26;;;;;;;9.85;4.80;;;;;;;15.19;75.76;100051.00;123565;1098;104246;-76
2023/06/29 03:57:57;;;;;;;10.30;4.63;;;;;;;15.23;76.73;100055.45;123526;1099;104331;-77
2023/06/29 04:00:29;;;;;;;10.93;5.00;;;;;;;15.27;76.92;100047.56;123975;1099;104347;-78
2023/06/29 04:03:00;;;;;;;10.67;4.63;;;;;;;15.35;75.89;100046.73;124001;1099;104259;-78
2023/06/29 04:05:31;;;;;;;7.77;4.63;;;;;;;15.41;76.02;100049.43;123750;1099;104324;-76
2023/06/29 04:08:05;;;;;;;8.93;4.63;;;;;;;15.44;75.96;100049.45;124068;1099;104345;-76
2023/06/29 04:10:36;;;;;;;8.75;4.58;;;;;;;15.46;76.49;100048.61;124170;1099;104223;-77
2023/06/29 04:13:07;;;;;;;8.47;4.70;;;;;;;15.49;76.22;100049.50;123676;1099;104255;-76
2023/06/29 04:15:39;;;;;;;8.20;4.80;;;;;;;15.51;76.31;100046.00;123829;1099;104262;-78
2023/06/29 04:18:10;;;;;;;8.50;4.60;;;;;;;15.54;76.22;100050.45;123858;1099;104396;-76
2023/06/29 04:20:41;;;;;;;10.87;4.40;;;;;;;15.59;77.15;100059.30;123936;1099;104325;-76
2023/06/29 04:23:15;;;;;;;9.73;4.47;;;;;;;15.61;76.97;100054.89;123753;1099;104280;-76
2023/06/29 04:25:46;;;;;;;8.53;4.55;;;;;;;15.66;76.36;100050.55;123973;1099;104248;-76
2023/06/29 04:28:17;;;;;;;7.97;4.40;;;;;;;15.71;76.49;100053.23;123788;1099;104267;-75
2023/06/29 04:30:48;;;;;;;8.17;4.20;;;;;;;15.76;77.04;100055.01;123403;1099;104326;-75
2023/06/29 04:33:21;;;;;;;10.93;4.93;;;;;;;15.84;76.21;100064.81;124061;1099;104191;-76
2023/06/29 04:35:53;;;;;;;7.80;4.30;;;;;;;15.90;76.79;100055.14;123766;1098;104265;-77
2023/06/29 04:38:27;;;;;;;8.40;3.90;;;;;;;15.98;76.88;100061.36;123655;1099;104197;-77
2023/06/29 04:41:03;;;;;;;;;;;;;;;16.04;76.46;100062.30;124646;1099;104239;-77
2023/06/29 04:43:36;;;;;;;7.77;4.40;;;;;;;16.11;76.11;100057.06;124341;1099;104357;-78
2023/06/29 04:46:07;;;;;;;13.90;4.40;;;;;;;16.18;76.07;100050.91;123952;1099;104246;-77
2023/06/29 04:48:39;;;;;;;9.80;3.95;;;;;;;16.27;76.51;100055.38;124088;1099;104321;-76
2023/06/29 04:51:13;;;;;;;9.93;4.30;;;;;;;16.34;76.32;100061.58;123982;1099;104278;-75
2023/06/29 04:53:45;;;;;;;6.27;3.77;;;;;;;16.42;76.75;100065.14;124752;1099;104252;-76
2023/06/29 04:56:19;;;;;;;7.93;4.10;;;;;;;16.48;76.12;100062.52;124409;1099;104259;-78
2023/06/29 04:58:50;;;;;;;8.83;4.10;;;;;;;16.56;76.32;100061.69;124996;1099;104274;-75
2023/06/29 05:01:21;;;;;;;9.57;3.97;;;;;;;16.65;75.93;100062.59;124523;1099;104191;-76
2023/06/29 05:03:55;;;;;;;7.53;3.80;;;;;;;16.74;76.08;100066.18;125214;1099;102171;-76
2023/06/29 05:06:27;;;;;;;10.37;4.07;;;;;;;16.83;75.56;100059.14;124629;1099;104255;-77
2023/06/29 05:08:58;;;;;;;7.63;3.90;;;;;;;16.93;75.74;100056.55;125224;1099;104354;-77
2023/06/29 05:11:30;;;;;;;5.83;3.10;;;;;;;16.98;75.23;100054.79;124833;1099;104252;-77
2023/06/29 05:14:01;;;;;;;6.70;3.57;;;;;;;17.05;74.75;100053.94;124843;1099;104229;-78
2023/06/29 05:16:33;;;;;;;13.03;3.40;;;;;;;17.13;74.20;100052.17;124925;1099;104162;-76
2023/06/29 05:19:04;;;;;;;7.93;3.63;;;;;;;17.19;74.16;100049.53;124408;1099;104351;-80
2023/06/29 05:21:35;;;;;;;7.83;3.43;;;;;;;17.29;74.34;100052.20;124679;1099;104240;-78
2023/06/29 05:24:08;;;;;;;5.37;3.20;;;;;;;17.39;73.33;100054.86;124958;1099;104227;-79
2023/06/29 05:26:39;;;;;;;6.87;3.67;;;;;;;17.49;73.60;100055.73;124491;1099;104280;-78
2023/06/29 05:29:12;;;;;;;9.87;3.73;;;;;;;17.59;73.08;100049.56;125277;1099;104188;-76
2023/06/29 05:31:43;;;;;;;8.57;3.43;;;;;;;17.70;72.53;100051.31;125099;1099;104237;-81
2023/06/29 05:34:14;;;;;;;7.03;3.50;;;;;;;17.74;71.21;100055.73;124766;1102;104223;-82
2023/06/29 05:36:52;;;;;;;5.67;3.07;;;;;;;17.81;71.23;100070.78;124455;1102;104331;-78
2023/06/29 05:39:29;;;;;;;6.50;3.10;;;;;;;17.89;70.69;100068.16;125124;1098;104245;-76
2023/06/29 05:42:00;;;;;;;6.13;3.10;;;;;;;17.97;69.88;100063.72;124726;1099;104268;-77
2023/06/29 05:44:31;;;;;;;8.27;3.00;;;;;;;18.04;69.38;100056.61;125075;1099;104178;-79
2023/06/29 05:47:03;;;;;;;10.30;3.23;;;;;;;18.12;68.84;100058.38;124446;1099;104289;-77
2023/06/29 05:49:34;;;;;;;10.20;3.35;;;;;;;18.20;68.00;100061.02;125069;1099;104714;-78
2023/06/29 05:52:06;;;;;;;12.77;3.73;;;;;;;18.22;67.34;100051.27;125172;1099;104159;-80
2023/06/29 05:54:38;;;;;;;11.00;3.60;;;;;;;18.31;67.83;100050.37;125199;1099;104162;-75
2023/06/29 05:57:11;;;;;;;8.20;3.67;;;;;;;18.41;67.50;100049.42;125402;1099;102300;-75
2023/06/29 05:59:45;;;;;;;12.80;3.60;;;;;;;18.50;66.54;100052.05;125359;1099;104171;-78
2023/06/29 06:02:24;;;;;;;9.17;3.20;;;;;;;18.57;66.12;100038.73;124644;1099;104430;-80
2023/06/29 06:04:59;;;;;;;7.13;3.00;;;;;;;18.62;65.33;100040.50;125365;1099;102857;-80
2023/06/29 06:07:33;;;;;;;9.20;3.33;;;;;;;18.68;65.06;100045.78;125124;1099;104172;-79
2023/06/29 06:10:06;;;;;;;7.23;3.37;;;;;;;18.79;65.90;100034.20;125162;1099;104097;-81
2023/06/29 06:12:37;;;;;;;6.70;2.97;;;;;;;18.92;65.98;100038.60;125382;1099;104351;-77
2023/06/29 06:15:15;;;;;;;11.57;3.27;;;;;;;19.04;65.55;100037.63;125203;1098;104256;-82
2023/06/29 06:17:48;;;;;;;7.20;3.33;;;;;;;19.12;63.35;100050.87;125386;1099;102558;-80
2023/06/29 06:20:23;;;;;;;7.30;2.80;;;;;;;19.17;63.58;100049.95;124639;1099;102687;-78
2023/06/29 06:22:58;;;;;;;5.60;3.10;;;;;;;19.22;62.51;100040.16;125341;1098;104261;-79
2023/06/29 06:25:29;;;;;;;7.67;3.00;;;;;;;19.30;62.41;100034.79;125279;1099;104249;-82
2023/06/29 06:28:06;;;;;;;9.10;3.00;;;;;;;19.38;61.82;100043.62;125294;1099;104274;-81
2023/06/29 06:30:38;;;;;;;8.23;3.07;;;;;;;19.44;61.06;100039.12;125357;1099;104194;-81
2023/06/29 06:33:15;;;;;;;5.63;3.13;;;;;;;19.53;62.00;100041.72;126174;1099;103399;-80
2023/06/29 06:35:49;;;;;;;4.30;2.60;;;;;;;19.61;60.64;100039.86;125032;1099;103528;-81
2023/06/29 06:38:20;;;;;;;4.77;2.80;;;;;;;19.65;60.08;100036.30;125297;1099;104353;-82
2023/06/29 06:40:54;;;;;;;6.03;2.73;;;;;;;19.73;59.58;100036.22;125686;1099;102540;-83
2023/06/29 06:43:32;;;;;;;4.03;2.80;;;;;;;19.83;59.45;100039.70;126145;1099;103644;-81
2023/06/29 06:46:04;;;;;;;3.63;2.57;;;;;;;19.90;58.43;100026.32;125281;1099;104265;-77
2023/06/29 06:48:37;;;;;;;7.60;3.00;;;;;;;20.04;58.68;100022.61;125112;1099;103390;-81
2023/06/29 06:51:09;;;;;;;8.43;3.20;;;;;;;20.18;58.17;100019.80;125206;1098;104169;-84
2023/06/29 06:53:41;;;;;;;6.40;2.40;;;;;;;20.33;57.91;100029.41;124816;1099;104210;-80
2023/06/29 06:56:12;;;;;;;7.77;3.00;;;;;;;20.40;58.02;100031.11;125028;1099;104319;-81
2023/06/29 06:58:44;;;;;;;5.97;3.00;;;;;;;20.48;57.66;100029.22;125103;1099;104229;-81
2023/06/29 07:01:18;;;;;;;9.38;2.67;;;;;;;20.64;57.30;100019.23;125472;1099;102668;-84
2023/06/29 07:03:59;;;;;;;;;;;;;;;;;;;;;
2023/06/29 07:06:33;;;;;;;7.73;2.47;;;;;;;20.82;56.18;100023.48;125813;1099;102970;-83
2023/06/29 07:09:12;;;;;;;6.13;2.60;;;;;;;20.89;55.01;100030.48;125152;1099;104208;-81
2023/06/29 07:11:44;;;;;;;6.50;2.30;;;;;;;20.98;53.26;100030.34;125432;1099;104191;-78
2023/06/29 07:14:17;;;;;;;5.33;2.30;;;;;;;21.04;51.95;100034.72;124850;1099;104281;-80
2023/06/29 07:16:50;;;;;;;7.67;2.37;;;;;;;21.15;52.06;100030.09;124948;1099;104358;-78
2023/06/29 07:19:26;;;;;;;5.75;3.00;;;;;;;21.26;50.96;100018.39;125036;1099;104227;-76
2023/06/29 07:21:59;;;;;;;9.93;2.60;;;;;;;21.44;51.23;100028.77;125097;1099;104197;-76
2023/06/29 07:24:31;;;;;;;6.00;2.80;;;;;;;21.63;51.72;100032.03;125276;1099;103386;-80
2023/06/29 07:27:05;;;;;;;4.23;2.60;;;;;;;21.78;49.17;100022.86;125059;1099;104213;-78
2023/06/29 07:32:37;;;;;;;3.37;2.50;;;;;;;22.26;49.61;100019.29;124709;1099;104626;-79
2023/06/29 07:35:10;;;;;;;5.33;2.57;;;;;;;22.44;49.56;100012.73;124951;1099;104251;-84
2023/06/29 07:37:44;;;;;;;5.93;2.30;;;;;;;22.56;50.53;100006.23;125098;1099;104261;-80
2023/06/29 07:40:20;;;;;;;5.90;2.77;;;;;;;22.72;50.50;100015.69;125127;1099;103208;-83
2023/06/29 07:42:52;;;;;;;5.33;2.40;;;;;;;22.93;48.52;100013.44;125112;1099;104322;-80
2023/06/29 07:45:26;;;;;;;5.90;2.90;;;;;;;23.12;48.98;100003.21;124616;1099;104427;-79
2023/06/29 07:48:04;;;;;;;;;;;;;;;23.32;44.21;100019.66;125176;1099;104248;-81
2023/06/29 07:50:43;;;;;;;5.05;2.50;;;;;;;23.46;47.21;100013.09;125295;1099;102592;-80
2023/06/29 07:53:15;;;;;;;6.07;2.37;;;;;;;23.61;45.10;100022.55;125103;1099;104185;-78
2023/06/29 07:55:49;;;;;;;12.37;2.60;;;;;;;23.69;46.39;100007.16;125330;1099;102400;-82
2023/06/29 07:58:25;;;;;;;5.07;2.13;;;;;;;23.77;44.78;100021.22;125409;1099;104161;-80
2023/06/29 08:01:04;;;;;;;3.83;2.03;;;;;;;23.72;45.63;100011.53;125566;1099;103355;-78
2023/06/29 08:03:45;;;;;;;3.67;2.20;;;;;;;23.69;44.59;100012.51;125344;1099;104332;-81
2023/06/29 08:06:20;;;;;;;3.80;2.50;;;;;;;23.69;45.47;100012.51;126110;1099;103156;-81
2023/06/29 08:08:54;;;;;;;4.97;2.30;;;;;;;23.67;45.79;100009.87;125853;1099;103170;-82
2023/06/29 08:11:26;;;;;;;4.47;2.37;;;;;;;23.69;45.35;100021.41;125958;1099;104306;-79
2023/06/29 08:14:00;;;;;;;4.63;2.30;;;;;;;23.70;45.46;100016.96;124672;1099;102082;-84
2023/06/29 08:16:46;;;;;;;5.37;2.30;;;;;;;23.76;45.60;100018.58;125576;1099;104301;-81
2023/06/29 08:19:18;;;;;;;6.53;2.67;;;;;;;23.87;44.89;100013.84;125111;1099;118942;-81
2023/06/29 08:21:55;;;;;;;6.80;2.20;;;;;;;23.98;44.71;100019.80;125251;1099;104086;-80
2023/06/29 08:24:29;;;;;;;5.20;2.43;;;;;;;24.01;44.49;100027.77;124971;1099;104172;-80
2023/06/29 08:27:02;;;;;;;4.55;2.40;;;;;;;23.96;44.76;100031.48;125179;1099;104255;-80
2023/06/29 08:29:34;;;;;;;2.60;2.20;;;;;;;23.78;43.77;100019.41;125134;1099;103048;-80
2023/06/29 08:32:06;;;;;;;5.53;2.40;;;;;;;23.76;44.17;100031.97;125128;1099;104258;-78
2023/06/29 08:34:39;;;;;;;5.90;2.60;;;;;;;23.63;43.07;100024.25;125174;1099;104168;-79
2023/06/29 08:37:10;;;;;;;3.23;2.53;;;;;;;23.57;43.98;100023.53;125073;1099;104439;-78
2023/06/29 08:39:42;;;;;;;4.15;2.50;;;;;;;23.39;43.32;100020.41;125084;1099;103542;-80
2023/06/29 08:42:19;;;;;;;4.97;2.40;;;;;;;23.41;43.50;100012.34;124730;1099;103837;-78
2023/06/29 08:44:51;;;;;;;3.20;2.00;;;;;;;23.60;43.24;100020.78;125012;1098;104287;-77
2023/06/29 08:47:24;;;;;;;4.30;2.37;;;;;;;23.89;42.93;100014.70;124826;1099;104219;-76
2023/06/29 08:49:57;;;;;;;6.70;2.60;;;;;;;24.12;42.77;100011.39;124900;1099;104242;-77
2023/06/29 08:52:33;;;;;;;1.90;1.70;;;;;;;24.39;42.85;100009.70;125107;1098;104223;-75
2023/06/29 08:55:09;;;;;;;4.43;2.30;;;;;;;24.56;41.66;100009.21;124854;1099;104313;-75
2023/06/29 08:57:43;;;;;;;3.70;2.20;;;;;;;24.74;42.17;99998.88;124828;1099;104111;-79
2023/06/29 09:00:22;;;;;;;7.63;2.17;;;;;;;24.86;41.83;99994.95;126773;1098;108171;-76
2023/06/29 09:02:55;;;;;;;5.27;2.00;;;;;;;24.99;41.76;99998.11;126231;1099;102225;-75
2023/06/29 09:05:27;;;;;;;4.80;2.57;;;;;;;24.94;41.47;100001.80;124983;1099;104299;-76
2023/06/29 09:07:59;;;;;;;3.80;2.00;;;;;;;24.80;41.14;99995.13;124941;1099;104201;-76
2023/06/29 09:10:48;;;;;;;2.95;2.15;;;;;;;24.69;41.04;99992.78;124470;1099;119699;-78
2023/06/29 09:13:27;;;;;;;4.30;1.95;;;;;;;24.58;41.15;99993.11;124586;1099;104335;-75
2023/06/29 09:16:00;;;;;;;2.87;2.10;;;;;;;24.46;40.58;99998.80;124909;1099;104223;-80
2023/06/29 09:18:34;;;;;;;4.53;1.85;;;;;;;24.45;40.88;99991.66;124628;1099;104353;-81
2023/06/29 09:21:16;;;;;;;6.23;2.17;;;;;;;24.59;40.91;99989.51;125186;1099;104185;-80
2023/06/29 09:23:49;;;;;;;2.87;1.70;;;;;;;24.60;40.50;99995.74;124597;1099;103158;-80
2023/06/29 09:26:35;;;;;;;4.10;2.00;;;;;;;24.54;40.51;100002.13;124442;1099;102512;-78
2023/06/29 09:29:13;;;;;;;4.17;1.90;;;;;;;24.46;39.32;100004.16;125188;1099;104176;-78
2023/06/29 09:31:57;;;;;;;5.40;1.77;;;;;;;24.41;40.23;99999.80;124809;1099;103809;-79
2023/06/29 09:34:30;;;;;;;2.37;1.87;;;;;;;24.34;40.06;100000.92;124820;1099;104262;-76
2023/06/29 09:37:05;;;;;;;4.57;1.80;;;;;;;24.20;39.52;99993.28;124897;1099;104169;-79
2023/06/29 09:39:37;;;;;;;3.40;2.02;;;;;;;24.11;40.00;99998.03;124880;1099;103496;-78
2023/06/29 09:42:12;;;;;;;3.40;1.83;;;;;;;24.04;39.70;100006.23;124496;1099;104300;-75
2023/06/29 09:44:47;;;;;;;3.90;2.20;;;;;;;23.95;39.94;99992.20;124461;1099;104325;-75
2023/06/29 09:49:59;;;;;;;9.17;2.20;;;;;;;24.04;39.92;99995.52;126194;1098;102580;-77
2023/06/29 09:52:47;;;;;;;1.90;1.70;;;;;;;24.34;40.40;99990.20;124855;1099;104354;-75
2023/06/29 09:55:33;;;;;;;5.30;2.00;;;;;;;24.64;39.77;99975.95;125281;1099;104245;-76
2023/06/29 09:58:08;;;;;;;5.53;2.13;;;;;;;24.94;39.98;99971.42;125176;1099;104325;-75
2023/06/29 10:00:45;;;;;;;3.00;1.57;;;;;;;25.12;39.73;99978.87;125330;1099;102191;-81
2023/06/29 10:03:22;;;;;;;6.75;2.00;;;;;;;25.22;39.27;99971.39;125041;1100;103116;-79
2023/06/29 10:05:57;;;;;;;5.33;2.10;;;;;;;25.14;39.08;99970.77;124648;1099;103304;-77
2023/06/29 10:08:33;;;;;;;3.67;1.87;;;;;;;25.22;38.29;99968.70;125079;1099;104229;-76
2023/06/29 10:11:06;;;;;;;3.27;2.10;;;;;;;25.43;38.59;99956.41;125034;1099;102922;-82
2023/06/29 10:13:43;;;;;;;3.03;1.80;;;;;;;25.57;38.58;99960.41;125092;1099;103170;-75
2023/06/29 10:16:21;;;;;;;2.73;1.60;;;;;;;25.87;38.28;99954.87;124981;1099;104249;-73
2023/06/29 10:19:01;;;;;;;2.73;1.97;;;;;;;25.98;38.14;99963.47;125127;1099;104336;-78
2023/06/29 10:21:35;;;;;;;2.77;1.73;;;;;;;25.92;38.10;99971.73;125229;1099;102873;-75
2023/06/29 10:24:15;;;;;;;2.63;1.70;;;;;;;25.81;37.78;99962.23;125144;1099;104242;-74
2023/06/29 10:26:50;;;;;;;5.37;1.77;;;;;;;25.84;37.51;99961.25;124908;1099;104169;-76
2023/06/29 10:29:21;;;;;;;3.72;2.00;;;;;;;25.83;37.95;99962.17;124948;1099;103267;-79
2023/06/29 10:32:01;;;;;;;7.13;1.80;;;;;;;25.75;37.56;99973.19;125180;1099;104211;-79
2023/06/29 10:34:34;;;;;;;3.47;1.93;;;;;;;25.68;37.00;99977.05;125065;1099;104220;-76
2023/06/29 10:37:15;;;;;;;8.17;1.87;;;;;;;25.56;37.04;99972.10;125173;1098;104240;-80
2023/06/29 10:39:58;;;;;;;2.73;1.43;;;;;;;25.51;37.57;99955.25;125310;1099;103100;-78
2023/06/29 10:42:56;;;;;;;4.60;2.10;;;;;;;25.31;37.46;99983.67;125042;1099;118600;-80
2023/06/29 10:45:44;;;;;;;3.17;1.47;;;;;;;25.06;37.85;99973.70;124581;1100;104326;-83
2023/06/29 10:48:42;;;;;;;4.27;1.60;;;;;;;24.98;38.20;99973.09;125457;1099;102785;-82
2023/06/29 10:51:37;;;;;;;2.30;1.70;;;;;;;25.16;38.12;99968.04;125760;1099;103120;-81
2023/06/29 10:54:11;;;;;;;;;;;;;;;25.11;38.43;99974.42;125095;1099;104348;-76
2023/06/29 10:57:01;;;;;;;5.53;2.00;;;;;;;24.91;38.53;99972.38;124869;1099;104187;-78
2023/06/29 10:59:34;;;;;;;1.60;1.50;;;;;;;24.66;38.71;99976.78;125057;1099;104437;-82
2023/06/29 11:02:10;;;;;;;4.70;1.50;;;;;;;24.48;38.95;99976.39;125439;1099;104291;-80
2023/06/29 11:04:57;;;;;;;2.23;1.70;;;;;;;24.47;39.06;99989.84;124859;1099;103248;-76
2023/06/29 11:07:36;;;;;;;3.50;2.07;;;;;;;24.51;39.52;99983.44;124848;1099;104169;-79
2023/06/29 11:10:48;;;;;;;4.90;1.90;;;;;;;24.52;39.68;99988.76;125037;1099;104293;-78
2023/06/29 11:13:32;;;;;;;2.93;1.87;;;;;;;24.46;39.89;99990.75;125707;1099;106916;-79
2023/06/29 11:16:07;;;;;;;4.27;1.83;;;;;;;24.45;39.74;99992.57;124667;1099;104493;-78
2023/06/29 11:18:50;;;;;;;4.63;2.23;;;;;;;24.46;40.25;99998.80;125216;1099;104192;-81
2023/06/29 11:21:32;;;;;;;2.57;2.00;;;;;;;24.47;39.93;100000.56;126666;1099;102567;-83
2023/06/29 11:24:09;;;;;;;5.13;2.40;;;;;;;24.63;40.14;99991.15;126194;1102;121625;-80
2023/06/29 11:26:47;;;;;;;4.90;2.20;;;;;;;24.80;40.16;99992.45;126849;1099;102053;-80
2023/06/29 11:29:22;;;;;;;3.40;2.20;;;;;;;24.88;40.17;99988.58;126726;1098;104332;-77
2023/06/29 11:31:56;;;;;;;9.27;2.70;;;;;;;25.02;40.14;99984.59;125151;1099;104326;-78
2023/06/29 11:34:43;;;;;;;3.85;1.80;;;;;;;25.31;40.50;99975.63;124406;1100;104325;-79
2023/06/29 11:37:21;;;;;;;4.47;2.50;;;;;;;25.38;40.26;99989.70;124861;1098;104258;-77
2023/06/29 11:39:55;;;;;;;6.10;2.47;;;;;;;25.37;40.25;99987.94;124951;1099;104163;-78
2023/06/29 11:42:34;;;;;;;5.23;2.33;;;;;;;25.24;39.75;99990.13;125025;1099;104191;-78
2023/06/29 11:45:25;;;;;;;3.37;2.53;;;;;;;24.98;39.82;99991.88;125175;1099;104163;-74
2023/06/29 11:48:07;;;;;;;4.40;2.60;;;;;;;24.85;40.26;99983.31;125071;1099;104239;-79
2023/06/29 11:50:48;;;;;;;5.10;2.60;;;;;;;24.81;40.73;99972.72;126232;1098;104212;-79